createdAt,value
2022-11-24T10:00:13.267Z,4.78
2022-11-24T10:02:40.960Z,7.57
2022-11-24T10:05:08.954Z,8.00
2022-11-24T10:08:11.895Z,3.95
2022-11-24T10:10:57.081Z,3.15
2022-11-24T10:14:01.407Z,3.33
2022-11-24T10:17:14.195Z,3.50
2022-11-24T10:20:27.315Z,3.25
2022-11-24T10:27:40.119Z,2.53
2022-11-24T10:30:20.840Z,3.55
2022-11-24T10:33:30.837Z,3.22
2022-11-24T10:36:15.994Z,2.45
2022-11-24T10:38:50.711Z,2.50
2022-11-24T10:41:37.335Z,2.45
2022-11-24T10:44:05.275Z,3.35
2022-11-24T10:46:39.608Z,2.75
2022-11-24T10:49:08.088Z,3.53
2022-11-24T10:51:44.500Z,3.20
2022-11-24T10:54:22.253Z,2.50
2022-11-24T10:56:55.170Z,2.65
2022-11-24T10:59:34.865Z,3.05
2022-11-24T11:02:32.523Z,1.95
2022-11-24T11:05:33.163Z,3.67
2022-11-24T11:08:21.098Z,3.33
2022-11-24T11:10:51.551Z,2.25
2022-11-24T11:13:25.301Z,2.20
2022-11-24T11:15:53.189Z,2.85
2022-11-24T11:18:22.314Z,2.35
2022-11-24T11:20:56.418Z,3.13
2022-11-24T11:23:33.987Z,2.80
2022-11-24T11:26:32.176Z,3.25
2022-11-24T11:34:57.363Z,2.50
2022-11-24T11:37:33.221Z,2.83
2022-11-24T11:40:01.919Z,3.20
2022-11-24T11:43:00.850Z,2.92
2022-11-24T11:45:36.071Z,3.00
2022-11-24T11:48:03.876Z,2.30
2022-11-24T11:54:05.796Z,3.15
2022-11-24T11:56:37.076Z,2.55
2022-11-24T11:59:33.144Z,2.83
2022-11-24T12:02:30.115Z,2.30
2022-11-24T12:05:27.773Z,2.47
2022-11-24T12:08:23.954Z,2.72
2022-11-24T12:10:59.931Z,1.98
2022-11-24T12:13:42.160Z,3.13
2022-11-24T12:16:18.278Z,2.80
2022-11-24T12:18:59.137Z,2.22
2022-11-24T12:21:34.779Z,2.42
2022-11-24T12:24:23.422Z,3.15
2022-11-24T12:27:04.219Z,2.08
2022-11-24T12:30:04.997Z,2.40
2022-11-24T12:33:10.350Z,3.13
2022-11-24T12:35:45.950Z,2.30
2022-11-24T12:38:19.493Z,2.38
2022-11-24T12:41:45.794Z,2.30
2022-11-24T12:49:09.112Z,2.60
2022-11-24T12:51:40.218Z,1.95
2022-11-24T12:54:14.071Z,2.60
2022-11-24T12:57:14.733Z,2.13
2022-11-24T12:59:47.253Z,2.88
2022-11-24T13:02:42.340Z,2.88
2022-11-24T13:05:20.211Z,1.95
2022-11-24T13:07:50.542Z,3.00
2022-11-24T13:10:46.459Z,2.95
2022-11-24T13:13:14.889Z,1.98
2022-11-24T13:16:34.708Z,2.63
2022-11-24T13:18:53.748Z,2.47
2022-11-24T13:21:28.418Z,2.30
2022-11-24T13:24:05.661Z,2.83
2022-11-24T13:26:43.274Z,2.47
2022-11-24T13:29:39.062Z,3.08
2022-11-24T13:32:07.033Z,2.95
2022-11-24T13:34:46.176Z,1.48
2022-11-24T13:37:26.501Z,0.82
2022-11-24T23:19:52.833Z,1.77
2022-11-24T23:22:27.827Z,1.75
2022-11-24T23:24:56.754Z,1.55
2022-11-24T23:46:55.258Z,1.55
2022-11-24T23:49:32.189Z,2.55
